createdAt,value
2022-11-21T00:01:20.202Z,2.91
2022-11-21T00:03:50.876Z,2.90
2022-11-21T00:06:20.442Z,2.88
2022-11-21T00:08:49.255Z,2.85
2022-11-21T00:11:19.165Z,2.83
2022-11-21T00:13:47.817Z,2.86
2022-11-21T00:16:17.971Z,2.86
2022-11-21T00:18:46.657Z,2.91
2022-11-21T00:21:18.429Z,2.90
2022-11-21T00:23:48.540Z,2.82
2022-11-21T00:26:18.156Z,2.97
2022-11-21T00:28:47.849Z,3.00
2022-11-21T00:31:23.968Z,2.99
2022-11-21T00:33:52.595Z,2.91
2022-11-21T00:36:22.454Z,2.98
2022-11-21T00:38:50.783Z,2.96
2022-11-21T00:41:19.213Z,2.98
2022-11-21T00:43:47.756Z,2.98
2022-11-21T00:46:16.271Z,3.06
2022-11-21T00:48:44.551Z,3.17
2022-11-21T00:51:13.424Z,3.16
2022-11-21T00:53:46.029Z,3.22
2022-11-21T00:56:15.831Z,3.29
2022-11-21T00:58:44.232Z,3.35
2022-11-21T01:01:15.130Z,3.27
2022-11-21T01:03:46.395Z,3.34
2022-11-21T01:06:17.064Z,3.34
2022-11-21T01:08:47.284Z,3.34
2022-11-21T01:11:18.304Z,3.31
2022-11-21T01:13:47.665Z,3.40
2022-11-21T01:16:18.065Z,3.34
2022-11-21T01:18:47.059Z,3.40
2022-11-21T01:21:17.279Z,3.47
2022-11-21T01:23:48.014Z,3.43
2022-11-21T01:26:18.446Z,3.42
2022-11-21T01:28:47.649Z,3.47
2022-11-21T01:31:18.051Z,3.45
2022-11-21T01:33:47.037Z,3.50
2022-11-21T01:36:17.896Z,3.50
2022-11-21T01:38:50.988Z,3.50
2022-11-21T01:41:21.677Z,3.56
2022-11-21T01:43:51.140Z,3.54
2022-11-21T01:46:24.246Z,3.51
2022-11-21T01:48:58.954Z,3.51
2022-11-21T01:51:32.960Z,3.55
2022-11-21T01:54:04.831Z,3.53
2022-11-21T01:56:40.157Z,3.56
2022-11-21T01:59:12.955Z,3.51
2022-11-21T02:01:41.643Z,3.57
2022-11-21T02:04:10.183Z,3.57
2022-11-21T02:06:39.925Z,3.50
2022-11-21T02:09:10.051Z,3.58
2022-11-21T02:11:42.484Z,3.46
2022-11-21T02:14:12.263Z,3.49
2022-11-21T02:16:41.452Z,3.49
2022-11-21T02:19:16.804Z,3.48
2022-11-21T02:21:54.936Z,3.43
2022-11-21T02:24:32.403Z,3.44
2022-11-21T02:27:02.323Z,3.43
2022-11-21T02:29:31.956Z,3.49
2022-11-21T02:32:02.076Z,3.48
2022-11-21T02:34:30.870Z,3.48
2022-11-21T02:36:59.838Z,3.41
2022-11-21T02:39:33.643Z,3.43
2022-11-21T02:42:12.164Z,3.42
2022-11-21T02:44:47.405Z,3.35
2022-11-21T02:47:16.083Z,3.41
2022-11-21T02:49:53.270Z,3.41
2022-11-21T02:52:21.966Z,3.41
2022-11-21T02:54:50.609Z,3.36
2022-11-21T02:57:20.404Z,3.36
2022-11-21T02:59:48.905Z,3.42
2022-11-21T03:02:17.132Z,3.38
2022-11-21T03:04:45.609Z,3.34
2022-11-21T03:07:14.051Z,3.33
2022-11-21T03:09:42.624Z,3.28
2022-11-21T03:12:12.401Z,3.34
2022-11-21T03:14:42.623Z,3.33
2022-11-21T03:17:10.957Z,3.32
2022-11-21T03:19:39.381Z,3.37
2022-11-21T03:22:08.309Z,3.41
2022-11-21T03:24:37.017Z,3.36
2022-11-21T03:27:05.511Z,3.38
2022-11-21T03:29:34.075Z,3.33
2022-11-21T03:32:04.205Z,3.33
2022-11-21T03:34:32.700Z,3.35
2022-11-21T03:37:01.968Z,3.36
2022-11-21T03:39:31.781Z,3.37
2022-11-21T03:42:00.801Z,3.36
2022-11-21T03:44:31.053Z,3.36
2022-11-21T03:46:59.729Z,3.36
2022-11-21T03:49:29.764Z,3.45
2022-11-21T03:51:58.231Z,3.44
2022-11-21T03:54:27.223Z,3.46
2022-11-21T03:56:55.936Z,3.39
2022-11-21T03:59:24.379Z,3.36
2022-11-21T04:01:52.977Z,3.36
2022-11-21T04:04:21.595Z,3.36
2022-11-21T04:06:52.280Z,3.44
2022-11-21T04:09:21.209Z,3.39
2022-11-21T04:11:49.556Z,3.42
2022-11-21T04:14:18.608Z,3.45
2022-11-21T04:16:47.261Z,3.42
2022-11-21T04:19:15.506Z,3.44
2022-11-21T04:21:44.101Z,3.45
2022-11-21T04:24:14.089Z,3.46
2022-11-21T04:26:42.574Z,3.45
2022-11-21T04:29:11.010Z,3.49
2022-11-21T04:31:39.653Z,3.46
2022-11-21T04:34:08.345Z,3.47
2022-11-21T04:36:36.795Z,3.47
2022-11-21T04:39:06.102Z,3.46
2022-11-21T04:41:35.910Z,3.50
2022-11-21T04:44:04.393Z,3.51
2022-11-21T04:46:32.703Z,3.46
2022-11-21T04:49:01.096Z,3.48
2022-11-21T04:51:29.705Z,3.52
2022-11-21T04:53:58.027Z,3.51
2022-11-21T04:56:26.817Z,3.48
2022-11-21T04:58:57.157Z,3.50
2022-11-21T05:01:25.762Z,3.54
2022-11-21T05:03:54.549Z,3.58
2022-11-21T05:06:23.262Z,3.57
2022-11-21T05:08:54.095Z,3.57
2022-11-21T05:11:39.812Z,3.51
2022-11-21T05:14:09.746Z,3.57
2022-11-21T05:16:38.332Z,3.48
2022-11-21T05:19:08.120Z,3.53
2022-11-21T05:21:36.916Z,3.50
2022-11-21T05:24:05.721Z,3.51
2022-11-21T05:26:34.218Z,3.47
2022-11-21T05:29:02.811Z,3.49
2022-11-21T05:31:32.745Z,3.40
2022-11-21T05:34:01.439Z,3.30
2022-11-21T05:36:35.020Z,3.18
2022-11-21T05:39:04.947Z,3.18
2022-11-21T05:41:33.653Z,3.12
2022-11-21T05:44:00.909Z,3.05
2022-11-21T05:46:29.807Z,3.00
2022-11-21T05:48:59.670Z,2.90
2022-11-21T05:51:28.274Z,2.82
2022-11-21T05:53:56.575Z,2.87
2022-11-21T05:56:24.866Z,2.73
2022-11-21T05:58:54.057Z,2.77
2022-11-21T06:01:36.235Z,2.81
2022-11-21T06:04:06.343Z,2.77
2022-11-21T06:06:34.963Z,2.80
2022-11-21T06:09:03.772Z,2.72
2022-11-21T06:11:32.445Z,2.68
2022-11-21T06:14:00.865Z,2.65
2022-11-21T06:16:29.350Z,2.61
2022-11-21T06:18:58.841Z,2.68
2022-11-21T06:21:30.380Z,2.63
2022-11-21T06:24:00.024Z,2.66
2022-11-21T06:26:29.292Z,2.65
2022-11-21T06:28:57.887Z,2.61
2022-11-21T06:31:27.626Z,2.62
2022-11-21T06:33:57.007Z,2.67
2022-11-21T06:36:27.139Z,2.79
2022-11-21T06:38:58.902Z,2.78
2022-11-21T06:41:32.155Z,2.81
2022-11-21T06:44:02.407Z,2.79
2022-11-21T06:46:31.014Z,2.80
2022-11-21T06:48:59.467Z,2.83
2022-11-21T06:51:27.950Z,2.81
2022-11-21T06:53:59.391Z,2.77
2022-11-21T06:56:29.469Z,2.80
2022-11-21T06:58:57.950Z,2.71
2022-11-21T07:01:27.108Z,2.80
2022-11-21T07:03:56.055Z,2.82
2022-11-21T07:06:24.651Z,2.80
2022-11-21T07:09:25.518Z,2.82
2022-11-21T07:11:45.939Z,2.80
2022-11-21T07:14:13.507Z,2.81
2022-11-21T07:16:42.387Z,2.88
2022-11-21T07:19:10.895Z,2.81
2022-11-21T07:21:39.400Z,2.83
2022-11-21T07:24:08.579Z,2.83
2022-11-21T07:26:38.094Z,2.82
2022-11-21T07:29:08.089Z,2.86
2022-11-21T07:31:36.590Z,2.80
2022-11-21T07:34:05.406Z,2.93
2022-11-21T07:36:36.335Z,2.95
2022-11-21T07:39:06.715Z,3.05
2022-11-21T07:41:35.061Z,3.09
2022-11-21T07:44:03.948Z,3.04
2022-11-21T07:46:34.155Z,3.01
2022-11-21T07:49:03.774Z,2.99
2022-11-21T07:51:32.254Z,2.94
2022-11-21T07:54:00.656Z,2.97
2022-11-21T07:56:30.232Z,3.00
2022-11-21T07:58:58.533Z,3.17
2022-11-21T08:01:26.954Z,3.24
2022-11-21T08:03:57.022Z,3.36
2022-11-21T08:06:25.648Z,3.40
2022-11-21T08:08:55.240Z,3.49
2022-11-21T08:11:24.036Z,3.59
2022-11-21T08:13:52.337Z,3.59
2022-11-21T08:16:21.023Z,3.63
2022-11-21T08:18:51.370Z,3.71
2022-11-21T08:21:21.251Z,3.75
2022-11-21T08:23:51.076Z,3.76
2022-11-21T08:26:20.482Z,3.73
2022-11-21T08:28:55.576Z,3.67
2022-11-21T08:31:27.516Z,3.62
2022-11-21T08:33:57.557Z,3.61
2022-11-21T08:36:27.436Z,3.59
2022-11-21T08:38:55.945Z,3.68
2022-11-21T08:41:41.921Z,3.68
2022-11-21T08:44:14.093Z,3.81
2022-11-21T08:46:43.355Z,3.82
2022-11-21T08:49:11.943Z,3.89
2022-11-21T08:51:41.961Z,3.96
2022-11-21T08:54:11.118Z,3.96
2022-11-21T08:56:40.163Z,4.01
2022-11-21T08:59:08.562Z,4.06
2022-11-21T09:01:37.056Z,4.09
2022-11-21T09:04:06.448Z,4.18
2022-11-21T09:06:35.345Z,4.15
2022-11-21T09:09:07.812Z,4.37
2022-11-21T09:11:37.113Z,4.36
2022-11-21T09:14:23.516Z,4.54
2022-11-21T09:17:09.494Z,4.52
2022-11-21T09:19:38.634Z,4.56
2022-11-21T09:22:07.519Z,4.53
2022-11-21T09:24:37.360Z,4.46
2022-11-21T09:27:05.707Z,4.49
2022-11-21T09:29:34.482Z,4.59
2022-11-21T09:32:02.723Z,4.70
2022-11-21T09:34:31.878Z,4.77
2022-11-21T09:37:00.462Z,4.77
2022-11-21T09:39:29.187Z,4.92
2022-11-21T09:42:10.197Z,4.89
2022-11-21T09:44:58.670Z,4.84
2022-11-21T09:47:30.965Z,4.92
2022-11-21T09:50:03.020Z,4.98
2022-11-21T09:52:41.515Z,5.11
2022-11-21T09:55:25.959Z,5.27
2022-11-21T09:57:57.226Z,5.36
2022-11-21T10:00:27.428Z,5.55
2022-11-21T10:02:56.618Z,5.50
2022-11-21T10:05:35.151Z,5.41
2022-11-21T10:08:17.237Z,5.35
2022-11-21T10:10:58.327Z,5.36
2022-11-21T10:13:49.097Z,5.43
2022-11-21T10:16:44.724Z,5.57
2022-11-21T10:19:46.208Z,5.55
2022-11-21T10:22:44.540Z,5.69
2022-11-21T10:25:17.561Z,5.76
2022-11-21T10:27:52.307Z,5.70
2022-11-21T10:30:23.937Z,5.69
2022-11-21T10:32:55.461Z,5.62
2022-11-21T10:35:25.651Z,5.73
2022-11-21T10:37:55.699Z,5.74
2022-11-21T10:40:37.079Z,5.73
2022-11-21T10:43:28.226Z,5.75
2022-11-21T10:45:58.644Z,5.70
2022-11-21T10:48:27.607Z,5.64
2022-11-21T10:51:16.399Z,5.52
2022-11-21T10:54:07.512Z,5.40
2022-11-21T10:56:38.807Z,5.35
2022-11-21T10:59:27.138Z,5.41
2022-11-21T11:02:02.330Z,5.31
2022-11-21T11:04:41.521Z,5.27
2022-11-21T11:07:24.126Z,5.28
2022-11-21T11:09:53.873Z,5.27
2022-11-21T11:12:45.551Z,5.11
2022-11-21T11:15:21.318Z,5.06
2022-11-21T11:17:57.876Z,5.18
2022-11-21T11:20:38.641Z,5.16
2022-11-21T11:23:26.108Z,5.28
2022-11-21T11:26:11.530Z,5.41
2022-11-21T11:28:40.262Z,5.31
2022-11-21T11:31:09.669Z,5.40
2022-11-21T11:33:41.738Z,5.28
2022-11-21T11:36:21.273Z,5.23
2022-11-21T11:38:56.328Z,5.36
2022-11-21T11:42:17.181Z,5.48
2022-11-21T11:45:15.001Z,5.51
2022-11-21T11:47:56.020Z,5.45
2022-11-21T11:50:31.095Z,5.54
2022-11-21T11:53:17.857Z,5.59
2022-11-21T11:55:53.795Z,5.63
2022-11-21T11:58:28.642Z,5.68
2022-11-21T12:01:05.073Z,5.54
2022-11-21T12:03:43.542Z,5.73
2022-11-21T12:06:19.888Z,5.74
2022-11-21T12:08:55.496Z,5.57
2022-11-21T12:11:52.719Z,5.42
2022-11-21T12:15:03.394Z,5.42
2022-11-21T12:17:38.892Z,5.23
2022-11-21T12:20:20.615Z,5.22
2022-11-21T12:22:53.509Z,5.35
2022-11-21T12:25:27.154Z,5.42
2022-11-21T12:27:58.009Z,5.46
2022-11-21T12:30:51.160Z,5.43
2022-11-21T12:33:23.511Z,5.29
2022-11-21T12:36:18.017Z,5.30
2022-11-21T12:38:59.822Z,5.32
2022-11-21T12:41:51.303Z,5.37
2022-11-21T12:44:38.524Z,5.25
2022-11-21T12:47:27.459Z,5.28
2022-11-21T12:50:22.470Z,5.35
2022-11-21T12:53:15.881Z,5.37
2022-11-21T12:55:48.028Z,5.37
2022-11-21T12:58:39.164Z,5.56
2022-11-21T13:01:23.365Z,5.61
2022-11-21T13:03:58.290Z,5.61
2022-11-21T13:06:30.370Z,5.51
2022-11-21T13:09:02.637Z,5.30
2022-11-21T13:11:59.013Z,5.14
2022-11-21T13:14:41.547Z,5.06
2022-11-21T13:17:22.870Z,4.95
2022-11-21T13:19:57.901Z,5.07
2022-11-21T13:22:52.693Z,5.28
2022-11-21T13:25:49.625Z,5.54
2022-11-21T13:28:47.596Z,5.85
2022-11-21T13:31:41.431Z,6.14
2022-11-21T13:34:38.282Z,6.08
2022-11-21T13:37:07.580Z,5.87
2022-11-21T13:39:38.314Z,5.90
2022-11-21T13:42:30.163Z,5.78
2022-11-21T13:45:21.659Z,5.54
2022-11-21T13:48:34.787Z,5.53
2022-11-21T13:51:25.093Z,5.46
2022-11-21T13:54:26.518Z,5.34
2022-11-21T13:57:07.544Z,5.28
2022-11-21T14:00:03.578Z,5.21
2022-11-21T14:03:04.482Z,5.07
2022-11-21T14:06:07.190Z,5.02
2022-11-21T14:08:36.136Z,5.06
2022-11-21T14:11:22.888Z,4.92
2022-11-21T14:13:53.285Z,5.01
2022-11-21T14:16:31.139Z,4.95
2022-11-21T14:19:02.463Z,4.91
2022-11-21T14:21:33.375Z,4.89
2022-11-21T14:24:05.955Z,4.82
2022-11-21T14:26:41.402Z,4.81
2022-11-21T14:29:22.929Z,4.74
2022-11-21T14:31:52.239Z,4.76
2022-11-21T14:34:30.759Z,4.66
2022-11-21T14:37:03.185Z,4.83
2022-11-21T14:39:39.689Z,4.80
2022-11-21T14:42:16.160Z,4.74
2022-11-21T14:44:44.913Z,4.63
2022-11-21T14:47:23.511Z,4.49
2022-11-21T14:50:06.925Z,4.50
2022-11-21T14:52:38.430Z,4.41
2022-11-21T14:55:29.733Z,4.29
2022-11-21T14:58:01.702Z,4.20
2022-11-21T15:03:23.692Z,3.87
2022-11-21T15:06:04.988Z,3.90
2022-11-21T15:11:27.939Z,3.68
2022-11-21T15:14:18.544Z,3.71
2022-11-21T15:16:53.363Z,3.73
2022-11-21T15:19:36.893Z,3.61
2022-11-21T15:22:25.044Z,3.60
2022-11-21T15:25:12.991Z,3.39
2022-11-21T15:27:42.229Z,3.31
2022-11-21T15:30:30.905Z,3.27
2022-11-21T15:33:15.552Z,3.15
2022-11-21T15:35:47.709Z,3.08
2022-11-21T15:38:27.375Z,3.02
2022-11-21T15:41:06.607Z,3.05
2022-11-21T15:43:45.764Z,2.97
2022-11-21T15:46:19.953Z,2.96
2022-11-21T15:48:51.920Z,2.90
2022-11-21T15:51:44.039Z,2.76
2022-11-21T15:54:16.141Z,2.63
2022-11-21T15:56:45.134Z,2.57
2022-11-21T15:59:13.803Z,2.36
2022-11-21T16:01:42.581Z,2.40
2022-11-21T16:04:13.045Z,2.28
2022-11-21T16:06:42.326Z,2.26
2022-11-21T16:09:11.324Z,2.28
2022-11-21T16:11:43.634Z,2.29
2022-11-21T16:14:16.022Z,2.33
2022-11-21T16:16:47.450Z,2.44
2022-11-21T16:19:17.158Z,2.48
2022-11-21T16:21:45.755Z,2.38
2022-11-21T16:24:14.147Z,2.28
2022-11-21T16:26:44.955Z,2.26
2022-11-21T16:29:15.128Z,2.22
2022-11-21T16:31:45.919Z,2.22
2022-11-21T16:34:14.933Z,2.28
2022-11-21T16:36:44.856Z,2.27
2022-11-21T16:39:29.924Z,2.33
2022-11-21T16:42:01.179Z,2.32
2022-11-21T16:44:32.078Z,2.30
2022-11-21T16:47:08.135Z,2.31
2022-11-21T16:49:48.467Z,2.28
2022-11-21T16:52:19.285Z,2.33
2022-11-21T16:54:49.188Z,2.40
2022-11-21T16:57:19.492Z,2.39
2022-11-21T16:59:51.340Z,2.32
2022-11-21T17:02:20.133Z,2.33
2022-11-21T17:04:49.059Z,2.18
2022-11-21T17:07:21.198Z,2.17
2022-11-21T17:09:50.405Z,2.05
2022-11-21T17:12:21.103Z,1.99
2022-11-21T17:14:50.485Z,1.97
2022-11-21T17:17:20.982Z,1.99
2022-11-21T17:19:49.574Z,1.94
2022-11-21T17:22:24.541Z,1.94
2022-11-21T17:24:53.998Z,1.89
2022-11-21T17:27:27.105Z,1.90
2022-11-21T17:29:55.677Z,1.84
2022-11-21T17:32:25.052Z,1.86
2022-11-21T17:34:53.591Z,1.82
2022-11-21T17:37:22.419Z,1.76
2022-11-21T17:39:52.180Z,1.75
2022-11-21T17:42:20.790Z,1.76
2022-11-21T17:44:51.136Z,1.68
2022-11-21T17:47:19.616Z,1.56
2022-11-21T17:49:49.636Z,1.60
2022-11-21T17:52:19.016Z,1.64
2022-11-21T17:54:47.701Z,1.61
2022-11-21T17:57:16.312Z,1.53
2022-11-21T17:59:45.328Z,1.58
2022-11-21T18:02:20.660Z,1.59
2022-11-21T18:04:50.662Z,1.65
2022-11-21T18:07:19.407Z,1.65
2022-11-21T18:09:48.856Z,1.63
2022-11-21T18:12:18.172Z,1.62
2022-11-21T18:14:46.673Z,1.54
2022-11-21T18:17:18.100Z,1.48
2022-11-21T18:19:46.986Z,1.62
2022-11-21T18:22:16.690Z,1.69
2022-11-21T18:24:49.249Z,1.53
2022-11-21T18:27:18.653Z,1.51
2022-11-21T18:29:47.772Z,1.43
2022-11-21T18:32:19.456Z,1.38
2022-11-21T18:34:48.464Z,1.44
2022-11-21T18:37:18.284Z,1.44
2022-11-21T18:39:46.816Z,1.46
2022-11-21T18:42:16.188Z,1.38
2022-11-21T18:44:45.324Z,1.33
2022-11-21T18:47:20.377Z,1.34
2022-11-21T18:49:51.254Z,1.25
2022-11-21T18:52:19.781Z,1.17
2022-11-21T18:54:48.343Z,1.25
2022-11-21T18:57:17.058Z,1.22
2022-11-21T18:59:47.149Z,1.26
2022-11-21T19:02:17.146Z,1.20
2022-11-21T19:04:48.303Z,1.22
2022-11-21T19:07:18.830Z,1.20
2022-11-21T19:09:48.081Z,1.16
2022-11-21T19:12:17.952Z,1.08
2022-11-21T19:14:48.021Z,1.09
2022-11-21T19:17:16.821Z,1.06
2022-11-21T19:19:46.904Z,1.11
2022-11-21T19:22:15.803Z,1.07
2022-11-21T19:24:45.751Z,1.05
2022-11-21T19:27:15.405Z,1.09
2022-11-21T19:29:44.251Z,1.05
2022-11-21T19:32:12.694Z,1.06
2022-11-21T19:34:45.913Z,1.05
2022-11-21T19:37:14.526Z,0.99
2022-11-21T19:39:44.641Z,0.96
2022-11-21T19:42:13.159Z,0.96
2022-11-21T19:44:42.898Z,0.93
2022-11-21T19:47:12.226Z,0.99
2022-11-21T19:49:40.738Z,1.09
2022-11-21T19:52:09.580Z,1.03
2022-11-21T19:54:38.329Z,0.94
2022-11-21T19:57:13.581Z,1.07
2022-11-21T19:59:46.394Z,1.10
2022-11-21T20:02:19.057Z,1.21
2022-11-21T20:04:48.348Z,1.24
2022-11-21T20:07:16.969Z,1.25
2022-11-21T20:09:45.782Z,1.23
2022-11-21T20:12:15.502Z,1.28
2022-11-21T20:14:44.892Z,1.18
2022-11-21T20:17:13.530Z,1.16
2022-11-21T20:19:45.289Z,1.18
2022-11-21T20:22:18.566Z,1.26
2022-11-21T20:24:51.772Z,1.27
2022-11-21T20:27:22.037Z,1.27
2022-11-21T20:29:50.646Z,1.22
2022-11-21T20:32:23.183Z,1.27
2022-11-21T20:34:51.713Z,1.33
2022-11-21T20:37:20.472Z,1.37
2022-11-21T20:39:49.607Z,1.31
2022-11-21T20:42:18.429Z,1.32
2022-11-21T20:47:42.465Z,1.32
2022-11-21T20:50:17.845Z,1.39
2022-11-21T20:55:50.325Z,1.41
2022-11-21T20:58:20.490Z,1.33
2022-11-21T21:00:52.127Z,1.43
2022-11-21T21:03:22.897Z,1.44
2022-11-21T21:05:56.576Z,1.36
2022-11-21T21:08:27.925Z,1.48
2022-11-21T21:11:16.547Z,1.54
2022-11-21T21:13:54.610Z,1.47
2022-11-21T21:16:26.884Z,1.42
2022-11-21T21:18:58.468Z,1.47
2022-11-21T21:21:28.867Z,1.45
2022-11-21T21:23:59.721Z,1.42
2022-11-21T21:26:30.827Z,1.40
2022-11-21T21:29:00.885Z,1.26
2022-11-21T21:31:31.817Z,1.38
2022-11-21T21:34:00.900Z,1.30
2022-11-21T21:36:30.489Z,1.29
2022-11-21T21:39:00.301Z,1.31
2022-11-21T21:41:31.737Z,1.33
2022-11-21T21:44:01.323Z,1.13
2022-11-21T21:46:32.105Z,1.11
2022-11-21T21:49:00.866Z,1.14
2022-11-21T21:51:31.468Z,1.11
2022-11-21T21:54:01.182Z,1.10
2022-11-21T21:56:31.517Z,1.06
2022-11-21T21:59:00.869Z,1.01
2022-11-21T22:01:33.475Z,1.07
2022-11-21T22:04:07.138Z,1.11
2022-11-21T22:06:37.040Z,1.01
2022-11-21T22:09:05.892Z,1.05
2022-11-21T22:11:39.103Z,1.02
2022-11-21T22:14:09.555Z,1.03
2022-11-21T22:16:39.729Z,1.06
2022-11-21T22:19:08.655Z,1.14
2022-11-21T22:21:39.816Z,1.13
2022-11-21T22:24:28.993Z,1.04
2022-11-21T22:26:57.863Z,1.07
2022-11-21T22:29:27.106Z,1.07
2022-11-21T22:31:58.059Z,1.13
2022-11-21T22:34:27.073Z,1.21
2022-11-21T22:36:56.111Z,1.10
2022-11-21T22:39:24.544Z,1.16
2022-11-21T22:41:58.416Z,1.22
2022-11-21T22:44:28.960Z,1.15
2022-11-21T22:47:00.131Z,1.16
2022-11-21T22:49:28.451Z,1.15
2022-11-21T22:51:56.833Z,1.12
2022-11-21T22:54:25.219Z,1.10
2022-11-21T22:56:53.763Z,1.07
2022-11-21T22:59:22.165Z,1.02
2022-11-21T23:01:50.873Z,1.06
2022-11-21T23:04:21.084Z,1.06
2022-11-21T23:06:49.923Z,1.14
2022-11-21T23:09:18.982Z,1.23
2022-11-21T23:11:47.601Z,1.02
2022-11-21T23:14:16.049Z,1.20
2022-11-21T23:16:44.500Z,1.11
2022-11-21T23:19:13.065Z,1.03
2022-11-21T23:21:43.074Z,0.97
2022-11-21T23:24:12.997Z,0.94
2022-11-21T23:26:41.800Z,0.80
2022-11-21T23:29:09.997Z,0.85
2022-11-21T23:31:38.846Z,0.74
2022-11-21T23:34:11.379Z,0.72
2022-11-21T23:36:39.726Z,0.64
2022-11-21T23:39:09.488Z,0.69
2022-11-21T23:41:38.442Z,0.67
2022-11-21T23:44:07.919Z,0.73
2022-11-21T23:46:36.172Z,0.73
2022-11-21T23:49:05.017Z,0.73
2022-11-21T23:51:33.494Z,0.73
2022-11-21T23:54:02.276Z,0.86
2022-11-21T23:56:32.246Z,0.92
2022-11-21T23:59:00.633Z,0.97
